sensor_id;sensor_type;location;lat;lon;timestamp;P1;durP1;ratioP1;P2;durP2;ratioP2
52878;SDS011;38747;53.140;6.498;2023-01-29T00:01:44;11.93;;;5.65;;
52878;SDS011;38747;53.140;6.498;2023-01-29T00:04:09;14.63;;;5.80;;
52878;SDS011;38747;53.140;6.498;2023-01-29T00:06:35;11.35;;;5.15;;
52878;SDS011;38747;53.140;6.498;2023-01-29T00:09:00;12.50;;;5.67;;
52878;SDS011;38747;53.140;6.498;2023-01-29T00:11:26;13.83;;;6.27;;
52878;SDS011;38747;53.140;6.498;2023-01-29T00:13:52;13.30;;;5.80;;
52878;SDS011;38747;53.140;6.498;2023-01-29T00:16:18;15.70;;;6.35;;
52878;SDS011;38747;53.140;6.498;2023-01-29T00:18:45;14.77;;;6.30;;
52878;SDS011;38747;53.140;6.498;2023-01-29T00:21:11;12.30;;;5.40;;
52878;SDS011;38747;53.140;6.498;2023-01-29T00:23:38;14.63;;;6.30;;
52878;SDS011;38747;53.140;6.498;2023-01-29T00:26:04;12.82;;;6.10;;
52878;SDS011;38747;53.140;6.498;2023-01-29T00:28:30;13.57;;;6.30;;
52878;SDS011;38747;53.140;6.498;2023-01-29T00:30:56;13.30;;;6.40;;
52878;SDS011;38747;53.140;6.498;2023-01-29T00:33:21;14.02;;;6.22;;
52878;SDS011;38747;53.140;6.498;2023-01-29T00:35:47;14.60;;;6.80;;
52878;SDS011;38747;53.140;6.498;2023-01-29T00:38:13;14.00;;;6.23;;
52878;SDS011;38747;53.140;6.498;2023-01-29T00:40:39;12.68;;;6.93;;
52878;SDS011;38747;53.140;6.498;2023-01-29T00:43:24;14.27;;;6.40;;
52878;SDS011;38747;53.140;6.498;2023-01-29T00:46:09;13.82;;;6.80;;
52878;SDS011;38747;53.140;6.498;2023-01-29T00:48:35;14.68;;;6.78;;
52878;SDS011;38747;53.140;6.498;2023-01-29T00:51:01;13.33;;;6.10;;
52878;SDS011;38747;53.140;6.498;2023-01-29T00:53:27;13.95;;;6.93;;
52878;SDS011;38747;53.140;6.498;2023-01-29T00:55:53;15.25;;;7.28;;
52878;SDS011;38747;53.140;6.498;2023-01-29T00:58:19;14.60;;;6.60;;
52878;SDS011;38747;53.140;6.498;2023-01-29T01:00:49;15.88;;;7.18;;
52878;SDS011;38747;53.140;6.498;2023-01-29T01:03:15;15.15;;;6.57;;
52878;SDS011;38747;53.140;6.498;2023-01-29T01:05:41;16.00;;;7.30;;
52878;SDS011;38747;53.140;6.498;2023-01-29T01:08:08;15.65;;;7.40;;
52878;SDS011;38747;53.140;6.498;2023-01-29T01:11:00;14.00;;;6.97;;
52878;SDS011;38747;53.140;6.498;2023-01-29T01:13:28;16.48;;;7.20;;
52878;SDS011;38747;53.140;6.498;2023-01-29T01:15:56;14.02;;;7.30;;
52878;SDS011;38747;53.140;6.498;2023-01-29T01:18:21;16.63;;;7.80;;
52878;SDS011;38747;53.140;6.498;2023-01-29T01:20:49;15.50;;;7.57;;
52878;SDS011;38747;53.140;6.498;2023-01-29T01:23:22;18.00;;;8.00;;
52878;SDS011;38747;53.140;6.498;2023-01-29T01:25:48;16.27;;;7.90;;
52878;SDS011;38747;53.140;6.498;2023-01-29T01:28:14;14.85;;;7.40;;
52878;SDS011;38747;53.140;6.498;2023-01-29T01:30:39;16.63;;;7.80;;
52878;SDS011;38747;53.140;6.498;2023-01-29T01:33:05;18.45;;;8.38;;
52878;SDS011;38747;53.140;6.498;2023-01-29T01:35:31;17.67;;;8.00;;
52878;SDS011;38747;53.140;6.498;2023-01-29T01:37:57;18.00;;;7.97;;
52878;SDS011;38747;53.140;6.498;2023-01-29T01:40:23;17.00;;;8.20;;
52878;SDS011;38747;53.140;6.498;2023-01-29T01:42:50;17.47;;;8.20;;
52878;SDS011;38747;53.140;6.498;2023-01-29T01:45:23;16.98;;;8.30;;
52878;SDS011;38747;53.140;6.498;2023-01-29T01:50:57;15.82;;;8.30;;
52878;SDS011;38747;53.140;6.498;2023-01-29T01:53:29;15.93;;;7.57;;
52878;SDS011;38747;53.140;6.498;2023-01-29T01:56:02;17.03;;;8.00;;
52878;SDS011;38747;53.140;6.498;2023-01-29T01:58:39;17.83;;;8.57;;
52878;SDS011;38747;53.140;6.498;2023-01-29T02:01:11;16.23;;;8.48;;
52878;SDS011;38747;53.140;6.498;2023-01-29T02:03:41;15.77;;;8.32;;
52878;SDS011;38747;53.140;6.498;2023-01-29T02:06:32;16.42;;;8.93;;
52878;SDS011;38747;53.140;6.498;2023-01-29T02:09:21;16.93;;;8.27;;
52878;SDS011;38747;53.140;6.498;2023-01-29T02:12:12;17.27;;;8.20;;
52878;SDS011;38747;53.140;6.498;2023-01-29T02:14:40;16.27;;;8.82;;
52878;SDS011;38747;53.140;6.498;2023-01-29T02:17:07;19.73;;;10.32;;
52878;SDS011;38747;53.140;6.498;2023-01-29T02:19:49;20.83;;;9.70;;
52878;SDS011;38747;53.140;6.498;2023-01-29T02:25:09;18.15;;;10.10;;
52878;SDS011;38747;53.140;6.498;2023-01-29T02:30:27;19.33;;;10.30;;
52878;SDS011;38747;53.140;6.498;2023-01-29T02:35:42;20.70;;;10.27;;
52878;SDS011;38747;53.140;6.498;2023-01-29T02:40:54;22.40;;;12.35;;
52878;SDS011;38747;53.140;6.498;2023-01-29T02:49:10;22.70;;;11.95;;
52878;SDS011;38747;53.140;6.498;2023-01-29T02:52:06;24.63;;;11.52;;
52878;SDS011;38747;53.140;6.498;2023-01-29T02:57:27;20.47;;;11.43;;
52878;SDS011;38747;53.140;6.498;2023-01-29T03:00:02;24.48;;;11.80;;
52878;SDS011;38747;53.140;6.498;2023-01-29T03:02:45;20.33;;;11.40;;
52878;SDS011;38747;53.140;6.498;2023-01-29T03:08:10;22.17;;;11.43;;
52878;SDS011;38747;53.140;6.498;2023-01-29T03:10:52;21.40;;;10.87;;
52878;SDS011;38747;53.140;6.498;2023-01-29T03:13:41;20.95;;;11.35;;
52878;SDS011;38747;53.140;6.498;2023-01-29T03:18:56;19.25;;;10.60;;
52878;SDS011;38747;53.140;6.498;2023-01-29T03:21:42;19.98;;;11.45;;
52878;SDS011;38747;53.140;6.498;2023-01-29T03:24:15;17.60;;;10.00;;
52878;SDS011;38747;53.140;6.498;2023-01-29T03:27:05;19.30;;;10.43;;
52878;SDS011;38747;53.140;6.498;2023-01-29T03:29:53;18.38;;;9.98;;
52878;SDS011;38747;53.140;6.498;2023-01-29T03:32:38;21.00;;;10.68;;
52878;SDS011;38747;53.140;6.498;2023-01-29T03:35:06;21.63;;;10.57;;
52878;SDS011;38747;53.140;6.498;2023-01-29T03:37:36;17.33;;;10.30;;
52878;SDS011;38747;53.140;6.498;2023-01-29T03:40:08;20.40;;;11.25;;
52878;SDS011;38747;53.140;6.498;2023-01-29T03:42:58;22.60;;;11.90;;
52878;SDS011;38747;53.140;6.498;2023-01-29T03:48:24;22.75;;;11.43;;
52878;SDS011;38747;53.140;6.498;2023-01-29T03:54:03;21.02;;;11.63;;
52878;SDS011;38747;53.140;6.498;2023-01-29T04:01:56;23.50;;;12.27;;
52878;SDS011;38747;53.140;6.498;2023-01-29T04:04:32;25.00;;;11.32;;
52878;SDS011;38747;53.140;6.498;2023-01-29T04:07:04;21.55;;;11.77;;
52878;SDS011;38747;53.140;6.498;2023-01-29T04:09:53;22.20;;;11.33;;
52878;SDS011;38747;53.140;6.498;2023-01-29T04:12:45;24.40;;;11.75;;
52878;SDS011;38747;53.140;6.498;2023-01-29T04:15:19;24.75;;;11.73;;
52878;SDS011;38747;53.140;6.498;2023-01-29T04:17:51;22.58;;;11.70;;
52878;SDS011;38747;53.140;6.498;2023-01-29T04:20:19;22.38;;;11.75;;
52878;SDS011;38747;53.140;6.498;2023-01-29T04:22:46;21.90;;;11.07;;
52878;SDS011;38747;53.140;6.498;2023-01-29T04:25:14;21.23;;;11.25;;
52878;SDS011;38747;53.140;6.498;2023-01-29T04:48:42;24.23;;;11.47;;
52878;SDS011;38747;53.140;6.498;2023-01-29T04:51:49;25.42;;;11.85;;
52878;SDS011;38747;53.140;6.498;2023-01-29T04:54:30;23.30;;;11.70;;
52878;SDS011;38747;53.140;6.498;2023-01-29T04:57:16;22.98;;;12.05;;
52878;SDS011;38747;53.140;6.498;2023-01-29T04:59:51;23.88;;;12.02;;
52878;SDS011;38747;53.140;6.498;2023-01-29T05:02:24;22.97;;;12.23;;
52878;SDS011;38747;53.140;6.498;2023-01-29T05:04:52;24.52;;;12.45;;
52878;SDS011;38747;53.140;6.498;2023-01-29T05:07:19;23.35;;;11.63;;
52878;SDS011;38747;53.140;6.498;2023-01-29T05:09:46;28.75;;;12.93;;
52878;SDS011;38747;53.140;6.498;2023-01-29T05:12:13;27.08;;;12.65;;
52878;SDS011;38747;53.140;6.498;2023-01-29T05:14:41;24.23;;;11.83;;
52878;SDS011;38747;53.140;6.498;2023-01-29T05:17:12;25.50;;;12.10;;
52878;SDS011;38747;53.140;6.498;2023-01-29T05:19:40;25.25;;;12.57;;
52878;SDS011;38747;53.140;6.498;2023-01-29T05:22:07;27.13;;;12.35;;
52878;SDS011;38747;53.140;6.498;2023-01-29T05:24:35;23.07;;;11.63;;
52878;SDS011;38747;53.140;6.498;2023-01-29T05:27:01;22.17;;;11.75;;
52878;SDS011;38747;53.140;6.498;2023-01-29T05:29:46;26.10;;;12.20;;
52878;SDS011;38747;53.140;6.498;2023-01-29T05:32:12;23.45;;;12.18;;
52878;SDS011;38747;53.140;6.498;2023-01-29T05:34:39;20.85;;;11.27;;
52878;SDS011;38747;53.140;6.498;2023-01-29T05:37:05;22.87;;;11.43;;
52878;SDS011;38747;53.140;6.498;2023-01-29T05:39:31;25.23;;;12.30;;
52878;SDS011;38747;53.140;6.498;2023-01-29T05:41:57;22.05;;;11.55;;
52878;SDS011;38747;53.140;6.498;2023-01-29T05:44:23;23.65;;;12.40;;
52878;SDS011;38747;53.140;6.498;2023-01-29T05:46:48;24.57;;;12.10;;
52878;SDS011;38747;53.140;6.498;2023-01-29T05:49:15;22.38;;;11.50;;
52878;SDS011;38747;53.140;6.498;2023-01-29T05:51:42;25.25;;;12.50;;
52878;SDS011;38747;53.140;6.498;2023-01-29T05:54:09;25.23;;;12.50;;
52878;SDS011;38747;53.140;6.498;2023-01-29T05:56:36;23.08;;;12.77;;
52878;SDS011;38747;53.140;6.498;2023-01-29T05:59:02;24.40;;;11.82;;
52878;SDS011;38747;53.140;6.498;2023-01-29T06:01:27;24.77;;;11.93;;
52878;SDS011;38747;53.140;6.498;2023-01-29T06:03:53;29.20;;;12.95;;
52878;SDS011;38747;53.140;6.498;2023-01-29T06:06:19;26.73;;;12.83;;
52878;SDS011;38747;53.140;6.498;2023-01-29T06:08:44;26.73;;;13.68;;
52878;SDS011;38747;53.140;6.498;2023-01-29T06:11:11;29.47;;;14.30;;
52878;SDS011;38747;53.140;6.498;2023-01-29T06:13:38;32.55;;;16.23;;
52878;SDS011;38747;53.140;6.498;2023-01-29T06:16:05;35.47;;;15.98;;
52878;SDS011;38747;53.140;6.498;2023-01-29T06:18:31;32.05;;;16.15;;
52878;SDS011;38747;53.140;6.498;2023-01-29T06:21:00;35.10;;;16.40;;
52878;SDS011;38747;53.140;6.498;2023-01-29T06:23:27;35.72;;;17.55;;
52878;SDS011;38747;53.140;6.498;2023-01-29T06:25:57;34.78;;;16.40;;
52878;SDS011;38747;53.140;6.498;2023-01-29T06:28:24;36.42;;;17.42;;
52878;SDS011;38747;53.140;6.498;2023-01-29T06:30:50;35.17;;;18.37;;
52878;SDS011;38747;53.140;6.498;2023-01-29T06:33:15;37.03;;;18.17;;
52878;SDS011;38747;53.140;6.498;2023-01-29T06:35:41;36.97;;;18.20;;
52878;SDS011;38747;53.140;6.498;2023-01-29T06:38:07;36.20;;;18.10;;
52878;SDS011;38747;53.140;6.498;2023-01-29T06:40:32;38.30;;;19.02;;
52878;SDS011;38747;53.140;6.498;2023-01-29T06:43:01;34.47;;;17.77;;
52878;SDS011;38747;53.140;6.498;2023-01-29T06:45:26;36.35;;;18.70;;
52878;SDS011;38747;53.140;6.498;2023-01-29T06:47:52;37.23;;;18.20;;
52878;SDS011;38747;53.140;6.498;2023-01-29T06:50:18;36.35;;;17.98;;
52878;SDS011;38747;53.140;6.498;2023-01-29T06:52:43;36.80;;;18.77;;
52878;SDS011;38747;53.140;6.498;2023-01-29T06:55:09;35.33;;;18.90;;
52878;SDS011;38747;53.140;6.498;2023-01-29T06:57:34;42.42;;;20.15;;
52878;SDS011;38747;53.140;6.498;2023-01-29T07:00:00;32.90;;;17.93;;
52878;SDS011;38747;53.140;6.498;2023-01-29T07:02:26;35.22;;;18.80;;
52878;SDS011;38747;53.140;6.498;2023-01-29T07:04:51;33.00;;;16.83;;
52878;SDS011;38747;53.140;6.498;2023-01-29T07:07:17;36.70;;;18.10;;
52878;SDS011;38747;53.140;6.498;2023-01-29T07:09:42;35.33;;;17.93;;
52878;SDS011;38747;53.140;6.498;2023-01-29T07:12:09;35.87;;;17.67;;
52878;SDS011;38747;53.140;6.498;2023-01-29T07:14:35;31.65;;;17.73;;
52878;SDS011;38747;53.140;6.498;2023-01-29T07:17:01;35.80;;;18.13;;
52878;SDS011;38747;53.140;6.498;2023-01-29T07:19:26;35.80;;;18.23;;
52878;SDS011;38747;53.140;6.498;2023-01-29T07:21:52;35.60;;;17.90;;
52878;SDS011;38747;53.140;6.498;2023-01-29T07:24:17;33.87;;;17.10;;
52878;SDS011;38747;53.140;6.498;2023-01-29T07:26:43;36.50;;;17.98;;
52878;SDS011;38747;53.140;6.498;2023-01-29T07:29:09;34.17;;;18.70;;
52878;SDS011;38747;53.140;6.498;2023-01-29T07:31:35;32.03;;;18.43;;
52878;SDS011;38747;53.140;6.498;2023-01-29T07:34:01;38.53;;;19.80;;
52878;SDS011;38747;53.140;6.498;2023-01-29T07:36:26;36.73;;;19.60;;
52878;SDS011;38747;53.140;6.498;2023-01-29T07:38:55;37.40;;;20.27;;
52878;SDS011;38747;53.140;6.498;2023-01-29T07:41:21;39.22;;;20.85;;
52878;SDS011;38747;53.140;6.498;2023-01-29T07:43:46;35.03;;;19.30;;
52878;SDS011;38747;53.140;6.498;2023-01-29T07:46:12;40.37;;;19.37;;
52878;SDS011;38747;53.140;6.498;2023-01-29T07:48:38;39.72;;;20.42;;
52878;SDS011;38747;53.140;6.498;2023-01-29T07:51:03;41.67;;;21.73;;
52878;SDS011;38747;53.140;6.498;2023-01-29T07:53:29;37.22;;;20.63;;
52878;SDS011;38747;53.140;6.498;2023-01-29T07:55:55;38.05;;;20.65;;
52878;SDS011;38747;53.140;6.498;2023-01-29T07:58:21;38.07;;;21.50;;
52878;SDS011;38747;53.140;6.498;2023-01-29T08:00:47;36.33;;;19.98;;
52878;SDS011;38747;53.140;6.498;2023-01-29T08:03:14;35.20;;;20.60;;
52878;SDS011;38747;53.140;6.498;2023-01-29T08:05:41;36.42;;;20.50;;
52878;SDS011;38747;53.140;6.498;2023-01-29T08:08:10;36.17;;;19.95;;
52878;SDS011;38747;53.140;6.498;2023-01-29T08:10:37;36.28;;;19.92;;
52878;SDS011;38747;53.140;6.498;2023-01-29T08:13:04;38.25;;;21.00;;
52878;SDS011;38747;53.140;6.498;2023-01-29T08:15:30;36.03;;;20.30;;
52878;SDS011;38747;53.140;6.498;2023-01-29T08:17:56;36.55;;;20.65;;
52878;SDS011;38747;53.140;6.498;2023-01-29T08:20:22;35.83;;;20.20;;
52878;SDS011;38747;53.140;6.498;2023-01-29T08:22:48;37.83;;;20.65;;
52878;SDS011;38747;53.140;6.498;2023-01-29T08:25:22;38.75;;;21.27;;
52878;SDS011;38747;53.140;6.498;2023-01-29T08:27:47;35.50;;;20.17;;
52878;SDS011;38747;53.140;6.498;2023-01-29T08:30:13;37.47;;;20.60;;
52878;SDS011;38747;53.140;6.498;2023-01-29T08:32:38;37.85;;;20.20;;
52878;SDS011;38747;53.140;6.498;2023-01-29T08:35:04;35.30;;;21.67;;
52878;SDS011;38747;53.140;6.498;2023-01-29T08:37:30;34.30;;;19.50;;
52878;SDS011;38747;53.140;6.498;2023-01-29T08:39:55;34.20;;;19.53;;
52878;SDS011;38747;53.140;6.498;2023-01-29T08:42:21;36.50;;;21.23;;
52878;SDS011;38747;53.140;6.498;2023-01-29T08:44:46;35.50;;;19.33;;
52878;SDS011;38747;53.140;6.498;2023-01-29T08:47:12;38.83;;;20.53;;
52878;SDS011;38747;53.140;6.498;2023-01-29T08:49:38;39.97;;;21.20;;
52878;SDS011;38747;53.140;6.498;2023-01-29T08:52:03;37.73;;;21.07;;
52878;SDS011;38747;53.140;6.498;2023-01-29T08:54:29;37.30;;;20.42;;
52878;SDS011;38747;53.140;6.498;2023-01-29T08:56:54;38.87;;;20.67;;
52878;SDS011;38747;53.140;6.498;2023-01-29T08:59:20;38.47;;;20.93;;
52878;SDS011;38747;53.140;6.498;2023-01-29T09:01:46;40.33;;;20.90;;
52878;SDS011;38747;53.140;6.498;2023-01-29T09:04:12;42.63;;;21.08;;
52878;SDS011;38747;53.140;6.498;2023-01-29T09:06:38;39.43;;;19.87;;
52878;SDS011;38747;53.140;6.498;2023-01-29T09:09:03;34.05;;;18.05;;
52878;SDS011;38747;53.140;6.498;2023-01-29T09:11:29;36.50;;;19.77;;
52878;SDS011;38747;53.140;6.498;2023-01-29T09:13:54;39.00;;;20.20;;
52878;SDS011;38747;53.140;6.498;2023-01-29T09:16:20;40.53;;;21.17;;
52878;SDS011;38747;53.140;6.498;2023-01-29T09:18:46;37.17;;;20.73;;
52878;SDS011;38747;53.140;6.498;2023-01-29T09:21:11;36.95;;;20.45;;
52878;SDS011;38747;53.140;6.498;2023-01-29T09:23:37;42.83;;;21.50;;
52878;SDS011;38747;53.140;6.498;2023-01-29T09:26:02;40.10;;;20.33;;
52878;SDS011;38747;53.140;6.498;2023-01-29T09:28:28;37.47;;;20.53;;
52878;SDS011;38747;53.140;6.498;2023-01-29T09:30:54;42.88;;;20.40;;
52878;SDS011;38747;53.140;6.498;2023-01-29T09:33:20;36.73;;;19.40;;
52878;SDS011;38747;53.140;6.498;2023-01-29T09:35:45;36.53;;;19.75;;
52878;SDS011;38747;53.140;6.498;2023-01-29T09:38:11;37.73;;;20.07;;
52878;SDS011;38747;53.140;6.498;2023-01-29T09:43:23;33.75;;;17.90;;
52878;SDS011;38747;53.140;6.498;2023-01-29T09:46:06;35.53;;;18.67;;
52878;SDS011;38747;53.140;6.498;2023-01-29T09:48:46;39.37;;;18.73;;
52878;SDS011;38747;53.140;6.498;2023-01-29T09:51:27;39.38;;;20.40;;
52878;SDS011;38747;53.140;6.498;2023-01-29T09:56:35;39.10;;;20.05;;
52878;SDS011;38747;53.140;6.498;2023-01-29T09:59:01;41.33;;;20.63;;
52878;SDS011;38747;53.140;6.498;2023-01-29T10:01:39;36.00;;;19.45;;
52878;SDS011;38747;53.140;6.498;2023-01-29T10:09:51;35.25;;;18.77;;
52878;SDS011;38747;53.140;6.498;2023-01-29T10:18:01;34.15;;;18.33;;
52878;SDS011;38747;53.140;6.498;2023-01-29T10:20:41;39.03;;;19.67;;
52878;SDS011;38747;53.140;6.498;2023-01-29T10:23:19;36.20;;;18.42;;
52878;SDS011;38747;53.140;6.498;2023-01-29T10:25:59;40.70;;;20.80;;
52878;SDS011;38747;53.140;6.498;2023-01-29T10:28:44;39.00;;;18.47;;
52878;SDS011;38747;53.140;6.498;2023-01-29T10:31:16;41.65;;;19.95;;
52878;SDS011;38747;53.140;6.498;2023-01-29T10:33:59;39.67;;;19.85;;
52878;SDS011;38747;53.140;6.498;2023-01-29T10:39:00;39.20;;;19.58;;
52878;SDS011;38747;53.140;6.498;2023-01-29T10:46:54;41.65;;;19.90;;
52878;SDS011;38747;53.140;6.498;2023-01-29T11:00:46;40.38;;;19.33;;
52878;SDS011;38747;53.140;6.498;2023-01-29T11:03:13;41.70;;;20.17;;
52878;SDS011;38747;53.140;6.498;2023-01-29T11:05:44;46.70;;;20.88;;
52878;SDS011;38747;53.140;6.498;2023-01-29T11:08:17;43.15;;;20.85;;
52878;SDS011;38747;53.140;6.498;2023-01-29T11:10:53;38.27;;;18.17;;
52878;SDS011;38747;53.140;6.498;2023-01-29T11:13:23;42.47;;;20.35;;
52878;SDS011;38747;53.140;6.498;2023-01-29T11:15:55;39.28;;;19.27;;
52878;SDS011;38747;53.140;6.498;2023-01-29T11:18:20;37.43;;;18.03;;
52878;SDS011;38747;53.140;6.498;2023-01-29T11:20:46;40.80;;;19.80;;
52878;SDS011;38747;53.140;6.498;2023-01-29T11:23:27;39.38;;;19.40;;
52878;SDS011;38747;53.140;6.498;2023-01-29T11:25:57;39.20;;;19.17;;
52878;SDS011;38747;53.140;6.498;2023-01-29T11:28:40;36.83;;;18.33;;
52878;SDS011;38747;53.140;6.498;2023-01-29T11:31:18;38.33;;;19.20;;
52878;SDS011;38747;53.140;6.498;2023-01-29T11:33:47;38.78;;;19.08;;
52878;SDS011;38747;53.140;6.498;2023-01-29T11:36:29;36.47;;;17.17;;
52878;SDS011;38747;53.140;6.498;2023-01-29T11:39:11;39.47;;;18.20;;
52878;SDS011;38747;53.140;6.498;2023-01-29T11:41:48;40.93;;;19.63;;
52878;SDS011;38747;53.140;6.498;2023-01-29T11:44:31;40.42;;;19.42;;
52878;SDS011;38747;53.140;6.498;2023-01-29T11:47:08;42.13;;;19.02;;
52878;SDS011;38747;53.140;6.498;2023-01-29T11:49:51;38.78;;;19.63;;
52878;SDS011;38747;53.140;6.498;2023-01-29T11:52:25;40.80;;;20.35;;
52878;SDS011;38747;53.140;6.498;2023-01-29T11:55:00;38.70;;;18.63;;
52878;SDS011;38747;53.140;6.498;2023-01-29T11:57:36;39.90;;;19.35;;
52878;SDS011;38747;53.140;6.498;2023-01-29T12:02:42;41.08;;;19.10;;
52878;SDS011;38747;53.140;6.498;2023-01-29T12:05:15;41.92;;;20.67;;
52878;SDS011;38747;53.140;6.498;2023-01-29T12:07:44;40.80;;;19.37;;
52878;SDS011;38747;53.140;6.498;2023-01-29T12:13:04;39.83;;;19.20;;
52878;SDS011;38747;53.140;6.498;2023-01-29T12:15:33;40.42;;;18.33;;
52878;SDS011;38747;53.140;6.498;2023-01-29T12:20:52;39.90;;;18.87;;
52878;SDS011;38747;53.140;6.498;2023-01-29T12:26:12;39.45;;;17.50;;
52878;SDS011;38747;53.140;6.498;2023-01-29T12:31:42;33.25;;;17.23;;
52878;SDS011;38747;53.140;6.498;2023-01-29T12:39:52;30.52;;;15.90;;
52878;SDS011;38747;53.140;6.498;2023-01-29T12:42:19;29.20;;;14.25;;
52878;SDS011;38747;53.140;6.498;2023-01-29T12:45:02;29.03;;;14.87;;
52878;SDS011;38747;53.140;6.498;2023-01-29T12:50:37;28.02;;;13.35;;
52878;SDS011;38747;53.140;6.498;2023-01-29T12:55:52;25.95;;;13.48;;
52878;SDS011;38747;53.140;6.498;2023-01-29T12:58:42;24.93;;;13.37;;
52878;SDS011;38747;53.140;6.498;2023-01-29T13:01:14;26.42;;;13.18;;
52878;SDS011;38747;53.140;6.498;2023-01-29T13:03:49;29.88;;;14.95;;
52878;SDS011;38747;53.140;6.498;2023-01-29T13:06:31;25.48;;;13.07;;
52878;SDS011;38747;53.140;6.498;2023-01-29T13:09:01;27.70;;;13.25;;
52878;SDS011;38747;53.140;6.498;2023-01-29T13:11:38;27.73;;;13.23;;
52878;SDS011;38747;53.140;6.498;2023-01-29T13:14:12;24.92;;;12.20;;
52878;SDS011;38747;53.140;6.498;2023-01-29T13:16:44;23.27;;;11.88;;
52878;SDS011;38747;53.140;6.498;2023-01-29T13:19:20;26.80;;;13.48;;
52878;SDS011;38747;53.140;6.498;2023-01-29T13:21:59;26.75;;;12.38;;
52878;SDS011;38747;53.140;6.498;2023-01-29T13:24:34;24.67;;;12.53;;
52878;SDS011;38747;53.140;6.498;2023-01-29T13:27:04;26.35;;;13.95;;
52878;SDS011;38747;53.140;6.498;2023-01-29T13:29:30;30.73;;;15.35;;
52878;SDS011;38747;53.140;6.498;2023-01-29T13:31:57;33.10;;;16.23;;
52878;SDS011;38747;53.140;6.498;2023-01-29T13:34:25;30.38;;;16.10;;
52878;SDS011;38747;53.140;6.498;2023-01-29T13:36:57;33.67;;;16.40;;
52878;SDS011;38747;53.140;6.498;2023-01-29T13:39:44;36.28;;;19.05;;
52878;SDS011;38747;53.140;6.498;2023-01-29T13:42:16;32.33;;;16.85;;
52878;SDS011;38747;53.140;6.498;2023-01-29T13:44:47;32.22;;;16.33;;
52878;SDS011;38747;53.140;6.498;2023-01-29T13:47:32;30.25;;;16.52;;
52878;SDS011;38747;53.140;6.498;2023-01-29T13:50:06;30.97;;;16.00;;
52878;SDS011;38747;53.140;6.498;2023-01-29T14:10:37;33.78;;;16.60;;
52878;SDS011;38747;53.140;6.498;2023-01-29T14:15:42;32.83;;;16.83;;
52878;SDS011;38747;53.140;6.498;2023-01-29T14:24:15;30.20;;;16.30;;
52878;SDS011;38747;53.140;6.498;2023-01-29T14:34:03;30.90;;;15.45;;
52878;SDS011;38747;53.140;6.498;2023-01-29T14:36:39;31.93;;;16.13;;
52878;SDS011;38747;53.140;6.498;2023-01-29T14:39:17;32.92;;;16.95;;
52878;SDS011;38747;53.140;6.498;2023-01-29T14:42:00;32.15;;;16.60;;
52878;SDS011;38747;53.140;6.498;2023-01-29T14:47:16;31.92;;;15.98;;
52878;SDS011;38747;53.140;6.498;2023-01-29T14:55:53;30.17;;;15.82;;
52878;SDS011;38747;53.140;6.498;2023-01-29T14:58:34;27.55;;;15.82;;
52878;SDS011;38747;53.140;6.498;2023-01-29T15:01:13;29.73;;;15.70;;
52878;SDS011;38747;53.140;6.498;2023-01-29T15:03:51;32.13;;;16.97;;
52878;SDS011;38747;53.140;6.498;2023-01-29T15:06:26;28.25;;;15.30;;
52878;SDS011;38747;53.140;6.498;2023-01-29T15:11:36;31.15;;;16.55;;
52878;SDS011;38747;53.140;6.498;2023-01-29T15:16:59;32.30;;;16.90;;
52878;SDS011;38747;53.140;6.498;2023-01-29T15:19:37;29.50;;;15.85;;
52878;SDS011;38747;53.140;6.498;2023-01-29T15:22:15;33.22;;;16.80;;
52878;SDS011;38747;53.140;6.498;2023-01-29T15:24:43;31.23;;;16.38;;
52878;SDS011;38747;53.140;6.498;2023-01-29T15:27:18;33.20;;;16.67;;
52878;SDS011;38747;53.140;6.498;2023-01-29T15:29:55;35.60;;;17.53;;
52878;SDS011;38747;53.140;6.498;2023-01-29T15:32:30;32.95;;;15.48;;
52878;SDS011;38747;53.140;6.498;2023-01-29T15:34:57;33.45;;;16.33;;
52878;SDS011;38747;53.140;6.498;2023-01-29T15:37:31;35.40;;;16.55;;
52878;SDS011;38747;53.140;6.498;2023-01-29T15:39:58;34.22;;;16.70;;
52878;SDS011;38747;53.140;6.498;2023-01-29T15:42:25;36.27;;;16.47;;
52878;SDS011;38747;53.140;6.498;2023-01-29T15:44:52;37.55;;;17.20;;
52878;SDS011;38747;53.140;6.498;2023-01-29T15:47:19;36.55;;;16.77;;
52878;SDS011;38747;53.140;6.498;2023-01-29T15:49:51;39.95;;;17.02;;
52878;SDS011;38747;53.140;6.498;2023-01-29T15:52:21;36.33;;;16.25;;
52878;SDS011;38747;53.140;6.498;2023-01-29T15:54:52;35.23;;;15.63;;
52878;SDS011;38747;53.140;6.498;2023-01-29T15:57:24;35.90;;;16.35;;
52878;SDS011;38747;53.140;6.498;2023-01-29T15:59:54;35.97;;;17.50;;
52878;SDS011;38747;53.140;6.498;2023-01-29T16:05:00;37.88;;;15.68;;
52878;SDS011;38747;53.140;6.498;2023-01-29T16:07:26;36.93;;;16.93;;
52878;SDS011;38747;53.140;6.498;2023-01-29T16:09:53;40.53;;;16.98;;
52878;SDS011;38747;53.140;6.498;2023-01-29T16:12:20;38.38;;;16.40;;
52878;SDS011;38747;53.140;6.498;2023-01-29T16:14:46;34.05;;;16.23;;
52878;SDS011;38747;53.140;6.498;2023-01-29T16:17:24;39.30;;;17.00;;
52878;SDS011;38747;53.140;6.498;2023-01-29T16:19:57;36.20;;;15.23;;
52878;SDS011;38747;53.140;6.498;2023-01-29T16:22:34;39.25;;;16.10;;
52878;SDS011;38747;53.140;6.498;2023-01-29T16:25:05;39.50;;;17.27;;
52878;SDS011;38747;53.140;6.498;2023-01-29T16:27:36;38.80;;;17.58;;
52878;SDS011;38747;53.140;6.498;2023-01-29T16:30:03;39.40;;;17.83;;
52878;SDS011;38747;53.140;6.498;2023-01-29T16:32:29;37.05;;;17.27;;
52878;SDS011;38747;53.140;6.498;2023-01-29T16:34:58;42.83;;;18.13;;
52878;SDS011;38747;53.140;6.498;2023-01-29T16:37:26;42.45;;;17.85;;
52878;SDS011;38747;53.140;6.498;2023-01-29T16:39:54;43.55;;;17.70;;
52878;SDS011;38747;53.140;6.498;2023-01-29T16:42:21;44.80;;;18.43;;
52878;SDS011;38747;53.140;6.498;2023-01-29T16:44:55;48.55;;;19.38;;
52878;SDS011;38747;53.140;6.498;2023-01-29T16:47:36;47.53;;;19.73;;
52878;SDS011;38747;53.140;6.498;2023-01-29T16:50:21;40.92;;;18.10;;
52878;SDS011;38747;53.140;6.498;2023-01-29T16:53:02;46.58;;;20.42;;
52878;SDS011;38747;53.140;6.498;2023-01-29T16:55:42;46.83;;;19.63;;
52878;SDS011;38747;53.140;6.498;2023-01-29T16:58:14;48.42;;;21.35;;
52878;SDS011;38747;53.140;6.498;2023-01-29T17:00:46;46.60;;;19.88;;
52878;SDS011;38747;53.140;6.498;2023-01-29T17:03:14;51.03;;;21.45;;
52878;SDS011;38747;53.140;6.498;2023-01-29T17:05:42;47.83;;;21.33;;
52878;SDS011;38747;53.140;6.498;2023-01-29T17:08:16;45.10;;;21.20;;
52878;SDS011;38747;53.140;6.498;2023-01-29T17:11:00;51.83;;;21.90;;
52878;SDS011;38747;53.140;6.498;2023-01-29T17:13:39;51.00;;;24.00;;
52878;SDS011;38747;53.140;6.498;2023-01-29T17:18:53;45.10;;;21.08;;
52878;SDS011;38747;53.140;6.498;2023-01-29T17:21:19;47.50;;;21.80;;
52878;SDS011;38747;53.140;6.498;2023-01-29T17:23:45;47.92;;;22.17;;
52878;SDS011;38747;53.140;6.498;2023-01-29T17:26:11;46.33;;;21.27;;
52878;SDS011;38747;53.140;6.498;2023-01-29T17:28:38;47.83;;;21.65;;
52878;SDS011;38747;53.140;6.498;2023-01-29T17:31:05;45.42;;;21.13;;
52878;SDS011;38747;53.140;6.498;2023-01-29T17:33:34;45.67;;;21.25;;
52878;SDS011;38747;53.140;6.498;2023-01-29T17:36:02;50.10;;;22.20;;
52878;SDS011;38747;53.140;6.498;2023-01-29T17:38:27;41.97;;;19.00;;
52878;SDS011;38747;53.140;6.498;2023-01-29T17:40:57;41.90;;;19.20;;